createdAt,value
2023-04-22T00:00:58.904Z,4.92
2023-04-22T00:03:28.058Z,4.89
2023-04-22T00:05:56.845Z,4.82
2023-04-22T00:08:25.799Z,4.77
2023-04-22T00:10:53.713Z,4.77
2023-04-22T00:13:21.659Z,4.77
2023-04-22T00:15:49.857Z,4.76
2023-04-22T00:18:18.055Z,4.75
2023-04-22T00:20:46.161Z,4.75
2023-04-22T00:23:14.171Z,4.76
2023-04-22T00:25:42.304Z,4.77
2023-04-22T00:28:10.242Z,4.81
2023-04-22T00:30:38.512Z,4.85
2023-04-22T00:33:06.494Z,4.88
2023-04-22T00:35:34.416Z,4.85
2023-04-22T00:38:02.402Z,4.83
2023-04-22T00:40:30.318Z,4.80
2023-04-22T00:42:59.907Z,4.76
2023-04-22T00:45:27.827Z,4.76
2023-04-22T00:47:56.928Z,4.77
2023-04-22T00:50:25.326Z,4.76
2023-04-22T00:52:53.233Z,4.71
2023-04-22T00:55:21.369Z,4.68
2023-04-22T00:57:51.051Z,4.65
2023-04-22T01:00:20.350Z,4.68
2023-04-22T01:02:48.458Z,4.75
2023-04-22T01:05:16.804Z,4.81
2023-04-22T01:07:45.128Z,4.84
2023-04-22T01:10:13.632Z,4.87
2023-04-22T01:12:41.546Z,4.87
2023-04-22T01:15:09.839Z,4.86
2023-04-22T01:17:37.855Z,4.85
2023-04-22T01:20:10.563Z,4.81
2023-04-22T01:22:44.671Z,4.80
2023-04-22T01:25:12.852Z,4.81
2023-04-22T01:27:41.125Z,4.77
2023-04-22T01:30:10.247Z,4.70
2023-04-22T01:32:41.186Z,4.59
2023-04-22T01:35:10.462Z,4.49
2023-04-22T01:37:39.164Z,4.47
2023-04-22T01:40:10.085Z,4.46
2023-04-22T01:42:38.354Z,4.46
2023-04-22T01:45:07.038Z,4.44
2023-04-22T01:47:34.923Z,4.36
2023-04-22T01:50:02.958Z,4.30
2023-04-22T01:52:31.360Z,4.26
2023-04-22T01:54:59.746Z,4.25
2023-04-22T01:57:27.840Z,4.21
2023-04-22T01:59:55.877Z,4.13
2023-04-22T02:02:23.944Z,4.13
2023-04-22T02:04:52.039Z,4.08
2023-04-22T02:07:20.139Z,3.96
2023-04-22T02:09:50.180Z,3.88
2023-04-22T02:12:18.852Z,3.82
2023-04-22T02:14:46.813Z,3.79
2023-04-22T02:17:17.926Z,3.77
2023-04-22T02:19:47.031Z,3.77
2023-04-22T02:22:15.025Z,3.79
2023-04-22T02:24:43.313Z,3.72
2023-04-22T02:27:11.277Z,3.59
2023-04-22T02:29:39.595Z,3.49
2023-04-22T02:32:08.555Z,3.45
2023-04-22T02:34:36.642Z,3.44
2023-04-22T02:37:04.591Z,3.46
2023-04-22T02:39:32.853Z,3.44
2023-04-22T02:42:01.557Z,3.39
2023-04-22T02:44:29.516Z,3.33
2023-04-22T02:46:57.420Z,3.24
2023-04-22T02:49:25.367Z,3.15
2023-04-22T02:51:53.379Z,3.13
2023-04-22T02:54:21.386Z,3.14
2023-04-22T02:56:49.415Z,3.17
2023-04-22T02:59:17.409Z,3.15
2023-04-22T03:01:45.744Z,3.10
2023-04-22T03:04:22.067Z,3.06
2023-04-22T03:06:50.225Z,3.05
2023-04-22T03:09:18.440Z,3.03
2023-04-22T03:11:46.423Z,3.03
2023-04-22T03:14:14.422Z,3.05
2023-04-22T03:16:42.405Z,3.03
2023-04-22T03:19:10.618Z,3.00
2023-04-22T03:21:38.532Z,2.97
2023-04-22T03:24:06.907Z,2.94
2023-04-22T03:26:35.772Z,2.91
2023-04-22T03:29:04.730Z,2.89
2023-04-22T03:31:32.668Z,2.92
2023-04-22T03:34:01.411Z,2.94
2023-04-22T03:36:31.176Z,2.95
2023-04-22T03:38:59.163Z,2.97
2023-04-22T03:41:31.371Z,2.97
2023-04-22T03:44:01.648Z,2.95
2023-04-22T03:46:30.689Z,2.95
2023-04-22T03:49:05.014Z,2.99
2023-04-22T03:51:35.895Z,3.00
2023-04-22T03:54:07.304Z,3.05
2023-04-22T03:56:37.152Z,3.09
2023-04-22T03:59:05.055Z,3.07
2023-04-22T04:01:33.762Z,3.05
2023-04-22T04:04:04.717Z,3.08
2023-04-22T04:06:51.597Z,3.11
2023-04-22T04:09:19.574Z,3.12
2023-04-22T04:11:48.442Z,3.12
2023-04-22T04:14:16.792Z,3.13
2023-04-22T04:16:48.106Z,3.16
2023-04-22T04:19:22.031Z,3.22
2023-04-22T04:21:50.048Z,3.30
2023-04-22T04:24:18.108Z,3.37
2023-04-22T04:26:49.840Z,3.40
2023-04-22T04:29:24.011Z,3.42
2023-04-22T04:32:10.518Z,3.46
2023-04-22T04:34:39.836Z,3.51
2023-04-22T04:37:09.271Z,3.61
2023-04-22T04:39:45.069Z,3.74
2023-04-22T04:42:14.581Z,3.83
2023-04-22T04:44:51.101Z,3.96
2023-04-22T04:47:20.237Z,4.02
2023-04-22T04:49:50.348Z,4.07
2023-04-22T04:52:18.278Z,4.12
2023-04-22T04:54:46.289Z,4.22
2023-04-22T04:57:14.436Z,4.37
2023-04-22T04:59:42.805Z,4.52
2023-04-22T05:02:11.621Z,4.64
2023-04-22T05:04:39.861Z,4.76
2023-04-22T05:07:08.422Z,4.85
2023-04-22T05:09:38.229Z,4.92
2023-04-22T05:12:07.538Z,4.99
2023-04-22T05:14:36.050Z,5.06
2023-04-22T05:17:04.246Z,5.14
2023-04-22T05:19:32.276Z,5.26
2023-04-22T05:22:00.212Z,5.41
2023-04-22T05:24:28.287Z,5.59
2023-04-22T05:26:59.332Z,5.76
2023-04-22T05:29:28.557Z,5.91
2023-04-22T05:31:56.650Z,6.05
2023-04-22T05:34:24.794Z,6.20
2023-04-22T05:36:54.988Z,6.35
2023-04-22T05:39:23.328Z,6.53
2023-04-22T05:41:51.430Z,6.71
2023-04-22T05:44:19.573Z,6.90
2023-04-22T05:46:47.903Z,7.06
2023-04-22T05:49:16.255Z,7.26
2023-04-22T05:52:13.591Z,7.49
2023-04-22T05:54:51.090Z,7.70
2023-04-22T05:57:19.046Z,7.91
2023-04-22T05:59:47.432Z,8.12
2023-04-22T06:02:16.506Z,8.34
2023-04-22T06:04:44.891Z,8.56
2023-04-22T06:07:13.176Z,8.78
2023-04-22T06:09:41.498Z,8.99
2023-04-22T06:12:10.811Z,9.19
2023-04-22T06:14:38.732Z,9.40
2023-04-22T06:17:06.652Z,9.63
2023-04-22T06:19:34.593Z,9.85
2023-04-22T06:22:02.519Z,10.08
2023-04-22T06:24:30.530Z,10.31
2023-04-22T06:26:58.555Z,10.55
2023-04-22T06:29:27.986Z,10.78
2023-04-22T06:31:55.976Z,10.99
2023-04-22T06:34:24.425Z,11.20
2023-04-22T06:36:53.281Z,11.39
2023-04-22T06:39:21.664Z,11.59
2023-04-22T06:42:15.638Z,11.78
2023-04-22T06:45:04.309Z,11.96
2023-04-22T06:47:43.391Z,12.14
2023-04-22T06:50:15.939Z,12.33
2023-04-22T06:53:01.974Z,12.51
2023-04-22T06:55:29.970Z,12.67
2023-04-22T06:57:58.058Z,12.81
2023-04-22T07:00:28.419Z,12.93
2023-04-22T07:02:58.245Z,13.06
2023-04-22T07:05:26.842Z,13.20
2023-04-22T07:07:54.888Z,13.33
2023-04-22T07:10:24.828Z,13.47
2023-04-22T07:13:11.314Z,13.63
2023-04-22T07:15:39.278Z,13.79
2023-04-22T07:18:07.307Z,13.91
2023-04-22T07:20:35.235Z,14.06
2023-04-22T07:23:03.176Z,14.21
2023-04-22T07:25:31.082Z,14.36
2023-04-22T07:27:59.093Z,14.50
2023-04-22T07:30:27.055Z,14.64
2023-04-22T07:32:55.634Z,14.77
2023-04-22T07:35:23.716Z,14.89
2023-04-22T07:37:51.704Z,15.00
2023-04-22T07:40:19.788Z,15.12
2023-04-22T07:42:47.702Z,15.24
2023-04-22T07:45:15.843Z,15.37
2023-04-22T07:47:43.824Z,15.53
2023-04-22T07:50:12.180Z,15.66
2023-04-22T07:52:40.305Z,15.76
2023-04-22T07:55:08.749Z,15.86
2023-04-22T07:57:38.951Z,15.97
2023-04-22T08:00:09.001Z,16.04
2023-04-22T08:02:44.167Z,16.05
2023-04-22T08:05:12.477Z,16.13
2023-04-22T08:07:40.532Z,16.25
2023-04-22T08:10:08.934Z,16.36
2023-04-22T08:12:37.601Z,16.51
2023-04-22T08:15:06.112Z,16.75
2023-04-22T08:17:34.151Z,16.95
2023-04-22T08:20:02.304Z,16.96
2023-04-22T08:22:30.336Z,17.01
2023-04-22T08:24:58.305Z,17.14
2023-04-22T08:27:26.171Z,17.28
2023-04-22T08:29:54.072Z,17.32
2023-04-22T08:32:23.465Z,17.37
2023-04-22T08:34:52.053Z,17.40
2023-04-22T08:37:22.163Z,17.42
2023-04-22T08:39:50.205Z,17.58
2023-04-22T08:42:20.473Z,17.67
2023-04-22T08:44:49.185Z,17.68
2023-04-22T08:47:19.472Z,17.79
2023-04-22T08:49:47.854Z,17.95
2023-04-22T08:52:15.929Z,18.00
2023-04-22T08:54:43.883Z,18.10
2023-04-22T08:57:13.331Z,18.16
2023-04-22T08:59:42.151Z,18.20
2023-04-22T09:02:18.073Z,18.25
2023-04-22T09:04:49.681Z,18.32
2023-04-22T09:07:25.765Z,18.44
2023-04-22T09:09:57.968Z,18.43
2023-04-22T09:12:26.219Z,18.51
2023-04-22T09:14:55.017Z,18.54
2023-04-22T09:17:34.560Z,18.58
2023-04-22T09:20:07.059Z,18.75
2023-04-22T09:22:47.338Z,18.90
2023-04-22T09:25:17.314Z,18.97
2023-04-22T09:27:50.588Z,19.01
2023-04-22T09:30:23.937Z,19.01
2023-04-22T09:32:54.699Z,19.03
2023-04-22T09:35:31.301Z,19.14
2023-04-22T09:38:01.365Z,19.27
2023-04-22T09:40:30.827Z,19.22
2023-04-22T09:43:01.921Z,19.23
2023-04-22T09:45:31.519Z,19.23
2023-04-22T09:48:11.413Z,19.24
2023-04-22T09:50:44.078Z,19.29
2023-04-22T09:53:15.576Z,19.33
2023-04-22T09:55:46.412Z,19.39
2023-04-22T09:58:19.145Z,19.51
2023-04-22T10:00:56.972Z,19.64
2023-04-22T10:03:25.045Z,19.70
2023-04-22T10:05:52.968Z,19.81
2023-04-22T10:08:22.585Z,19.93
2023-04-22T10:10:50.479Z,20.04
2023-04-22T10:13:18.373Z,20.15
2023-04-22T10:15:51.812Z,20.16
2023-04-22T10:18:26.109Z,19.97
2023-04-22T10:20:56.665Z,19.98
2023-04-22T10:23:25.688Z,20.06
2023-04-22T10:25:55.407Z,20.14
2023-04-22T10:28:25.346Z,20.23
2023-04-22T10:30:53.869Z,20.39
2023-04-22T10:33:21.838Z,20.53
2023-04-22T10:36:10.100Z,20.55
2023-04-22T10:39:02.752Z,20.51
2023-04-22T10:41:33.159Z,20.51
2023-04-22T10:44:05.964Z,20.66
2023-04-22T10:46:45.542Z,20.85
2023-04-22T10:49:25.186Z,21.03
2023-04-22T10:51:58.603Z,21.22
2023-04-22T10:54:31.858Z,21.30
2023-04-22T10:57:15.468Z,21.37
2023-04-22T10:59:49.515Z,21.37
2023-04-22T11:02:19.819Z,21.41
2023-04-22T11:04:48.852Z,21.41
2023-04-22T11:07:30.262Z,21.50
2023-04-22T11:10:10.903Z,21.52
2023-04-22T11:12:43.110Z,21.55
2023-04-22T11:15:16.868Z,21.61
2023-04-22T11:17:46.637Z,21.67
2023-04-22T11:20:17.640Z,21.76
2023-04-22T11:22:51.896Z,21.84
2023-04-22T11:25:20.973Z,21.90
2023-04-22T11:27:49.522Z,22.04
2023-04-22T11:30:20.089Z,22.08
2023-04-22T11:32:53.103Z,22.09
2023-04-22T11:35:22.813Z,22.08
2023-04-22T11:37:56.380Z,22.05
2023-04-22T11:40:31.869Z,22.11
2023-04-22T11:43:03.584Z,22.13
2023-04-22T11:45:34.225Z,22.20
2023-04-22T11:48:03.487Z,22.28
2023-04-22T11:50:34.321Z,22.40
2023-04-22T11:53:04.757Z,22.60
2023-04-22T11:55:35.710Z,22.65
2023-04-22T11:58:12.358Z,22.62
2023-04-22T12:00:44.746Z,22.61
2023-04-22T12:03:16.074Z,22.61
2023-04-22T12:05:45.641Z,22.78
2023-04-22T12:08:18.862Z,22.86
2023-04-22T12:10:55.240Z,22.87
2023-04-22T12:13:30.393Z,22.96
2023-04-22T12:16:21.702Z,23.10
2023-04-22T12:18:51.026Z,23.32
2023-04-22T12:21:22.017Z,23.47
2023-04-22T12:23:55.176Z,23.57
2023-04-22T12:26:26.578Z,23.60
2023-04-22T12:28:57.031Z,23.59
2023-04-22T12:31:25.992Z,23.68
2023-04-22T12:33:54.207Z,23.80
2023-04-22T12:36:22.343Z,23.81
2023-04-22T12:38:51.257Z,23.81
2023-04-22T12:41:20.070Z,23.84
2023-04-22T12:43:48.090Z,23.95
2023-04-22T12:46:16.799Z,24.03
2023-04-22T12:48:44.678Z,24.14
2023-04-22T12:51:12.742Z,24.14
2023-04-22T12:53:40.628Z,24.12
2023-04-22T12:56:08.554Z,24.11
2023-04-22T12:58:36.520Z,24.24
2023-04-22T13:01:04.599Z,24.31
2023-04-22T13:03:32.773Z,24.21
2023-04-22T13:06:01.347Z,24.32
2023-04-22T13:08:30.152Z,24.52
2023-04-22T13:10:59.404Z,24.72
2023-04-22T13:13:27.596Z,24.75
2023-04-22T13:15:56.830Z,24.70
2023-04-22T13:18:24.957Z,24.68
2023-04-22T13:20:53.326Z,24.70
2023-04-22T13:23:22.057Z,24.69
2023-04-22T13:25:50.711Z,24.63
2023-04-22T13:28:19.182Z,24.70
2023-04-22T13:30:47.118Z,24.83
2023-04-22T13:33:14.993Z,24.97
2023-04-22T13:35:43.092Z,25.05
2023-04-22T13:38:11.004Z,25.14
2023-04-22T13:40:39.078Z,25.14
2023-04-22T13:43:09.315Z,25.12
2023-04-22T13:45:37.441Z,25.05
2023-04-22T13:48:05.701Z,25.13
2023-04-22T13:50:34.413Z,25.28
2023-04-22T13:53:04.043Z,25.51
2023-04-22T13:55:32.118Z,25.63
2023-04-22T13:58:01.268Z,25.65
2023-04-22T14:00:29.329Z,25.69
2023-04-22T14:02:57.555Z,25.76
2023-04-22T14:05:26.282Z,25.71
2023-04-22T14:07:54.698Z,25.43
2023-04-22T14:10:22.808Z,25.21
2023-04-22T14:12:51.076Z,25.39
2023-04-22T14:15:19.013Z,25.64
2023-04-22T14:17:49.510Z,25.88
2023-04-22T14:20:17.862Z,26.12
2023-04-22T14:22:46.672Z,26.35
2023-04-22T14:25:14.792Z,26.54
2023-04-22T14:27:43.132Z,26.50
2023-04-22T14:30:11.772Z,26.48
2023-04-22T14:32:39.746Z,26.40
2023-04-22T14:35:08.038Z,26.47
2023-04-22T14:37:36.152Z,26.54
2023-04-22T14:40:04.887Z,26.44
2023-04-22T14:42:36.051Z,26.54
2023-04-22T14:45:05.424Z,26.58
2023-04-22T14:47:33.446Z,26.60
2023-04-22T14:50:01.670Z,26.58
2023-04-22T14:52:33.040Z,26.38
2023-04-22T14:55:11.759Z,26.22
2023-04-22T14:57:44.445Z,26.17
2023-04-22T15:00:12.972Z,26.16
2023-04-22T15:02:46.955Z,26.02
2023-04-22T15:05:15.224Z,26.14
2023-04-22T15:07:43.634Z,26.12
2023-04-22T15:10:11.681Z,26.18
2023-04-22T15:12:39.779Z,26.15
2023-04-22T15:15:08.344Z,25.72
2023-04-22T15:17:36.417Z,25.73
2023-04-22T15:20:06.492Z,25.89
2023-04-22T15:22:36.302Z,25.84
2023-04-22T15:25:04.641Z,25.69
2023-04-22T15:27:32.770Z,25.88
2023-04-22T15:30:00.972Z,25.98
2023-04-22T15:32:29.091Z,26.14
2023-04-22T15:34:57.542Z,26.31
2023-04-22T15:37:26.066Z,26.30
2023-04-22T15:39:54.362Z,26.43
2023-04-22T15:42:26.014Z,26.47
2023-04-22T15:44:53.917Z,26.32
2023-04-22T15:47:22.109Z,26.05
2023-04-22T15:49:50.724Z,25.89
2023-04-22T15:52:21.216Z,25.67
2023-04-22T15:54:49.942Z,25.63
2023-04-22T15:57:19.048Z,25.78
2023-04-22T15:59:51.337Z,25.89
2023-04-22T16:02:22.220Z,25.66
2023-04-22T16:04:50.566Z,25.44
2023-04-22T16:07:18.678Z,25.42
2023-04-22T16:09:47.012Z,25.50
2023-04-22T16:12:15.506Z,25.58
2023-04-22T16:14:43.633Z,25.45
2023-04-22T16:17:11.853Z,25.44
2023-04-22T16:19:40.082Z,25.22
2023-04-22T16:22:08.328Z,24.98
2023-04-22T16:24:36.290Z,24.96
2023-04-22T16:27:04.319Z,24.94
2023-04-22T16:29:32.590Z,24.69
2023-04-22T16:32:00.964Z,24.52
2023-04-22T16:34:29.005Z,24.48
2023-04-22T16:36:57.170Z,24.41
2023-04-22T16:39:25.634Z,24.40
2023-04-22T16:41:54.138Z,24.24
2023-04-22T16:44:22.112Z,23.96
2023-04-22T16:46:50.100Z,23.77
2023-04-22T16:49:18.016Z,23.56
2023-04-22T16:51:46.191Z,23.31
2023-04-22T16:54:14.260Z,23.26
2023-04-22T16:56:42.263Z,23.23
2023-04-22T16:59:10.396Z,23.01
2023-04-22T17:01:38.743Z,22.85
2023-04-22T17:04:07.352Z,22.71
2023-04-22T17:06:36.591Z,22.55
2023-04-22T17:09:07.221Z,22.35
2023-04-22T17:11:35.238Z,22.15
2023-04-22T17:14:03.548Z,21.93
2023-04-22T17:16:32.445Z,21.79
2023-04-22T17:19:00.617Z,21.64
2023-04-22T17:21:28.984Z,21.47
2023-04-22T17:23:59.420Z,21.27
2023-04-22T17:26:27.318Z,20.87
2023-04-22T17:28:55.354Z,20.43
2023-04-22T17:31:23.665Z,20.12
2023-04-22T17:33:51.692Z,19.77
2023-04-22T17:36:20.152Z,19.46
2023-04-22T17:38:48.198Z,19.13
2023-04-22T17:41:18.388Z,18.85
2023-04-22T17:43:46.659Z,18.54
2023-04-22T17:46:15.283Z,18.24
2023-04-22T17:48:46.694Z,17.94
2023-04-22T17:51:15.210Z,17.66
2023-04-22T17:53:43.167Z,17.36
2023-04-22T17:56:11.082Z,17.08
2023-04-22T17:58:38.968Z,16.79
2023-04-22T18:01:08.047Z,16.48
2023-04-22T18:03:36.756Z,16.21
2023-04-22T18:06:04.832Z,15.97
2023-04-22T18:08:32.930Z,15.70
2023-04-22T18:11:03.120Z,15.47
2023-04-22T18:13:32.589Z,15.29
2023-04-22T18:16:00.589Z,15.09
2023-04-22T18:18:28.522Z,14.89
2023-04-22T18:21:01.849Z,14.73
2023-04-22T18:23:29.930Z,14.57
2023-04-22T18:26:00.942Z,14.39
2023-04-22T18:28:28.832Z,14.24
2023-04-22T18:31:01.884Z,14.07
2023-04-22T18:33:30.212Z,13.93
2023-04-22T18:35:59.999Z,13.80
2023-04-22T18:38:30.579Z,13.66
2023-04-22T18:41:02.710Z,13.52
2023-04-22T18:43:35.897Z,13.42
2023-04-22T18:46:10.020Z,13.31
2023-04-22T18:48:37.941Z,13.21
2023-04-22T18:51:07.258Z,13.14
2023-04-22T18:53:35.672Z,13.07
2023-04-22T18:56:12.293Z,13.00
2023-04-22T18:58:40.632Z,12.92
2023-04-22T19:01:10.972Z,12.86
2023-04-22T19:03:46.742Z,12.79
2023-04-22T19:06:18.731Z,12.70
2023-04-22T19:08:51.824Z,12.63
2023-04-22T19:11:22.538Z,12.57
2023-04-22T19:13:53.869Z,12.50
2023-04-22T19:16:30.677Z,12.45
2023-04-22T19:19:12.827Z,12.40
2023-04-22T19:21:50.775Z,12.33
2023-04-22T19:24:20.176Z,12.28
2023-04-22T19:27:00.191Z,12.23
2023-04-22T19:29:31.165Z,12.19
2023-04-22T19:32:07.561Z,12.15
2023-04-22T19:34:37.226Z,12.13
2023-04-22T19:37:09.780Z,12.09
2023-04-22T19:39:44.351Z,11.94
2023-04-22T19:42:12.377Z,11.97
2023-04-22T19:44:43.123Z,11.92
2023-04-22T19:47:11.372Z,11.86
2023-04-22T19:49:41.437Z,11.80
2023-04-22T19:52:12.044Z,11.78
2023-04-22T19:54:41.620Z,11.76
2023-04-22T19:57:11.751Z,11.74
2023-04-22T19:59:40.540Z,11.69
2023-04-22T20:02:10.171Z,11.67
2023-04-22T20:04:39.128Z,11.65
2023-04-22T20:07:07.780Z,11.62
2023-04-22T20:09:36.735Z,11.59
2023-04-22T20:12:05.262Z,11.58
2023-04-22T20:14:33.727Z,11.54
2023-04-22T20:17:02.558Z,11.50
2023-04-22T20:19:31.547Z,11.47
2023-04-22T20:22:01.209Z,11.43
2023-04-22T20:24:33.133Z,11.40
2023-04-22T20:27:01.641Z,11.40
2023-04-22T20:29:30.222Z,11.37
2023-04-22T20:32:05.151Z,11.36
2023-04-22T20:34:35.096Z,11.39
2023-04-22T20:37:14.880Z,11.42
2023-04-22T20:39:44.426Z,11.45
2023-04-22T20:42:18.449Z,11.45
2023-04-22T20:44:53.067Z,11.49
2023-04-22T20:47:25.324Z,11.50
2023-04-22T20:49:53.731Z,11.52
2023-04-22T20:52:24.923Z,11.56
2023-04-22T20:54:55.391Z,11.58
2023-04-22T20:57:26.332Z,11.63
2023-04-22T20:59:54.987Z,11.57
2023-04-22T21:02:32.335Z,11.73
2023-04-22T21:05:04.052Z,11.79
2023-04-22T21:07:33.733Z,11.82
2023-04-22T21:10:02.158Z,11.87
2023-04-22T21:12:32.899Z,11.89
2023-04-22T21:15:01.379Z,11.91
2023-04-22T21:17:34.004Z,11.92
2023-04-22T21:20:05.621Z,11.93
2023-04-22T21:22:33.958Z,11.93
2023-04-22T21:25:02.946Z,11.93
2023-04-22T21:27:34.026Z,11.93
2023-04-22T21:30:02.610Z,11.91
2023-04-22T21:32:32.379Z,11.91
2023-04-22T21:35:00.693Z,11.92
2023-04-22T21:37:28.717Z,11.93
2023-04-22T21:39:56.627Z,11.94
2023-04-22T21:42:24.481Z,11.94
2023-04-22T21:44:52.343Z,11.96
2023-04-22T21:47:20.266Z,11.96
2023-04-22T21:49:50.382Z,11.93
2023-04-22T21:52:20.616Z,11.92
2023-04-22T21:54:48.621Z,11.90
2023-04-22T21:57:16.642Z,11.90
2023-04-22T21:59:45.715Z,11.90
2023-04-22T22:02:13.705Z,11.88
2023-04-22T22:04:41.999Z,11.88
2023-04-22T22:07:12.308Z,11.87
2023-04-22T22:09:43.299Z,11.85
2023-04-22T22:12:13.980Z,11.84
2023-04-22T22:14:43.485Z,11.82
2023-04-22T22:17:11.884Z,11.81
2023-04-22T22:19:42.546Z,11.78
2023-04-22T22:22:10.522Z,11.77
2023-04-22T22:24:38.565Z,11.75
2023-04-22T22:27:07.342Z,11.71
2023-04-22T22:29:35.605Z,11.65
2023-04-22T22:32:03.577Z,11.59
2023-04-22T22:34:35.831Z,11.55
2023-04-22T22:37:04.007Z,11.51
2023-04-22T22:39:32.061Z,11.46
2023-04-22T22:41:59.985Z,11.43
2023-04-22T22:44:27.883Z,11.38
2023-04-22T22:46:56.590Z,11.32
2023-04-22T22:49:24.678Z,11.30
2023-04-22T22:51:52.675Z,11.27
2023-04-22T22:54:20.713Z,11.23
2023-04-22T22:56:48.629Z,11.20
2023-04-22T22:59:16.576Z,11.19
2023-04-22T23:01:45.014Z,11.16
2023-04-22T23:04:13.287Z,11.13
2023-04-22T23:06:41.647Z,11.11
2023-04-22T23:09:10.879Z,11.08
2023-04-22T23:11:38.784Z,11.05
2023-04-22T23:14:09.675Z,11.03
2023-04-22T23:16:38.236Z,11.00
2023-04-22T23:19:06.893Z,10.96
2023-04-22T23:21:35.158Z,10.91
2023-04-22T23:24:03.347Z,10.84
2023-04-22T23:26:31.455Z,10.79
2023-04-22T23:28:59.743Z,10.74
2023-04-22T23:31:29.860Z,10.70
2023-04-22T23:34:02.739Z,10.63
2023-04-22T23:36:33.034Z,10.60
2023-04-22T23:39:01.121Z,10.56
2023-04-22T23:41:29.269Z,10.54
2023-04-22T23:43:57.152Z,10.51
2023-04-22T23:46:25.685Z,10.48
2023-04-22T23:48:53.992Z,10.44
2023-04-22T23:51:21.972Z,10.41
2023-04-22T23:53:49.902Z,10.37
2023-04-22T23:56:21.209Z,10.33
2023-04-22T23:58:51.142Z,10.30
